ENRS/RET METAR and TAF weather

Enter ICAO airport designator
Station Type Date Time Source
ENRS METAR 2024/06/16 00:20 UTC NOAA

ENRS 160020Z AUTO 02014KT 8000 OVC002/// 09/08 Q1010


Station Type Date Time Source
ENRS Decoded METAR 2024/06/16 00:20 UTC NOAA

Rost Flyplass, Norway (ENRS) 67-31N 012-06E
Jun 15, 2024 - 08:20 PM EDT / 2024.06.16 0020 UTC
Wind: from the NNE (020 degrees) at 16 MPH (14 KT):0
Visibility: 4 mile(s):0
Sky conditions: overcast
Temperature: 48 F (9 C)
Dew Point: 46 F (8 C)
Relative Humidity: 93%
Pressure (altimeter): 29.83 in. Hg (1010 hPa)
ob: ENRS 160020Z AUTO 02014KT 8000 OVC002/// 09/08 Q1010
cycle: 0

Station Type Date Time Source
ENRS TAF UTC NOAA

Error!

Example: see airport list